Time;durP1;ratioP1;P1;durP2;ratioP2;P2;SDS_P1;SDS_P2;PMS_P1;PMS_P2;Temp;Humidity;BMP_temperature;BMP_pressure;BME280_temperature;BME280_humidity;BME280_pressure;Samples;Min_cycle;Max_cycle;Signal;HPM_P1;HPM_P2
2021/07/07 00:00:21;;;;;;;1.35;0.30;;;14.50;99.90;;;;;;4992643;28;20045;-84
2021/07/07 00:02:47;;;;;;;1.40;0.30;;;14.60;99.90;;;;;;5027183;28;20038;-84
2021/07/07 00:05:14;;;;;;;0.70;0.30;;;14.60;99.90;;;;;;5009085;28;20041;-84
2021/07/07 00:07:41;;;;;;;1.38;0.30;;;14.60;99.90;;;;;;5008773;28;20038;-84
2021/07/07 00:10:10;;;;;;;1.58;0.22;;;14.60;99.90;;;;;;5008220;28;20157;-83
2021/07/07 00:12:36;;;;;;;1.25;0.30;;;14.50;99.90;;;;;;5008871;28;20065;-84
2021/07/07 00:15:06;;;;;;;2.08;0.40;;;14.40;99.90;;;;;;5026112;28;20033;-84
2021/07/07 00:17:32;;;;;;;1.20;0.50;;;14.40;99.90;;;;;;5008677;28;20497;-85
2021/07/07 00:19:57;;;;;;;1.05;0.50;;;14.50;99.90;;;;;;4992708;28;20053;-84
2021/07/07 00:22:23;;;;;;;1.67;0.50;;;14.40;99.90;;;;;;5008978;28;20030;-85
2021/07/07 00:24:48;;;;;;;1.45;0.40;;;14.50;99.90;;;;;;5008762;28;20049;-84
2021/07/07 00:27:14;;;;;;;2.17;0.40;;;14.40;99.90;;;;;;5008557;28;20053;-85
2021/07/07 00:29:42;;;;;;;2.15;0.60;;;14.40;99.90;;;;;;5025074;28;20116;-85
2021/07/07 00:32:08;;;;;;;1.75;0.80;;;14.40;99.90;;;;;;5009087;28;20041;-85
2021/07/07 00:34:33;;;;;;;1.80;0.50;;;14.40;99.90;;;;;;4993102;28;20121;-85
2021/07/07 00:36:59;;;;;;;2.63;0.47;;;14.40;99.90;;;;;;5009723;28;20122;-85
2021/07/07 00:39:25;;;;;;;1.20;0.38;;;14.40;99.90;;;;;;4992532;28;20038;-85
2021/07/07 00:41:50;;;;;;;3.58;0.60;;;14.30;99.90;;;;;;5026083;28;20037;-85
2021/07/07 00:44:16;;;;;;;2.28;0.40;;;14.30;99.90;;;;;;5008382;28;20036;-85
2021/07/07 00:46:46;;;;;;;1.00;0.30;;;14.30;99.90;;;;;;5007977;28;20068;-85
2021/07/07 00:49:13;;;;;;;1.25;0.40;;;14.30;99.90;;;;;;5024615;28;20054;-84
2021/07/07 00:51:39;;;;;;;1.30;0.30;;;14.30;99.90;;;;;;5008628;28;20433;-85
2021/07/07 00:54:05;;;;;;;1.92;0.30;;;14.30;99.90;;;;;;5010821;28;20078;-84
2021/07/07 00:56:34;;;;;;;1.20;0.30;;;14.30;99.90;;;;;;5045441;28;20042;-85
2021/07/07 00:59:01;;;;;;;1.27;0.30;;;14.30;99.90;;;;;;5045694;28;20108;-84
2021/07/07 01:01:27;;;;;;;1.67;0.30;;;14.20;99.90;;;;;;5027982;28;20065;-83
2021/07/07 01:03:53;;;;;;;2.38;0.30;;;14.20;99.90;;;;;;5027914;28;20531;-85
2021/07/07 01:06:18;;;;;;;1.20;0.38;;;14.20;99.90;;;;;;5011281;28;20041;-84
2021/07/07 01:08:44;;;;;;;1.30;0.28;;;14.10;99.90;;;;;;5028017;28;20032;-84
2021/07/07 01:11:10;;;;;;;1.90;0.40;;;14.10;99.90;;;;;;5045906;28;20033;-85
2021/07/07 01:13:39;;;;;;;2.30;0.40;;;14.10;99.90;;;;;;5012041;28;20022;-85
2021/07/07 01:16:05;;;;;;;1.40;0.30;;;14.00;99.90;;;;;;5012742;28;20037;-84
2021/07/07 01:18:31;;;;;;;1.45;0.20;;;13.90;99.90;;;;;;5027782;28;20057;-85
2021/07/07 01:20:57;;;;;;;1.33;0.30;;;13.90;99.90;;;;;;5013288;28;20044;-84
2021/07/07 01:23:22;;;;;;;0.82;0.30;;;14.00;99.90;;;;;;5015340;28;20029;-85
2021/07/07 01:25:48;;;;;;;0.98;0.20;;;14.00;99.90;;;;;;5031712;28;20041;-84
2021/07/07 01:28:16;;;;;;;0.90;0.30;;;14.00;99.90;;;;;;5049261;28;20052;-84
2021/07/07 01:30:42;;;;;;;1.13;0.25;;;13.90;99.90;;;;;;5031651;28;20029;-85
2021/07/07 01:33:07;;;;;;;2.45;0.20;;;13.90;99.90;;;;;;5015187;28;20030;-85
2021/07/07 01:35:33;;;;;;;1.08;0.35;;;13.80;99.90;;;;;;5031700;28;20044;-84
2021/07/07 01:37:58;;;;;;;1.45;0.30;;;13.80;99.90;;;;;;5031407;28;20036;-84
2021/07/07 01:40:27;;;;;;;1.05;0.30;;;13.90;99.90;;;;;;5031683;28;20026;-85
2021/07/07 01:42:53;;;;;;;2.22;0.30;;;13.90;99.90;;;;;;5049046;28;20029;-85
2021/07/07 01:45:23;;;;;;;2.10;0.30;;;13.90;99.90;;;;;;5048689;28;20560;-84
2021/07/07 01:47:50;;;;;;;;;;;13.90;99.90;;;;;;5048980;28;20054;-84
2021/07/07 01:50:16;;;;;;;1.40;0.40;;;13.90;99.90;;;;;;5031010;28;19909;-84
2021/07/07 01:52:43;;;;;;;1.65;0.30;;;13.90;99.90;;;;;;5030845;28;20124;-84
2021/07/07 01:55:11;;;;;;;2.55;0.30;;;13.90;99.90;;;;;;5011161;28;20022;-83
2021/07/07 01:57:43;;;;;;;1.73;0.38;;;13.90;99.90;;;;;;5027741;28;20394;-84
2021/07/07 02:00:18;;;;;;;2.35;0.30;;;13.90;99.90;;;;;;5027752;28;20037;-84
2021/07/07 02:02:49;;;;;;;0.68;0.30;;;13.90;99.90;;;;;;5027153;28;20030;-84
2021/07/07 02:05:15;;;;;;;1.67;0.40;;;13.80;99.90;;;;;;5011133;28;20030;-84
2021/07/07 02:07:41;;;;;;;1.33;0.50;;;13.80;99.90;;;;;;5027498;28;20470;-84
2021/07/07 02:10:10;;;;;;;1.65;0.50;;;13.80;99.90;;;;;;5028640;28;20475;-84
2021/07/07 02:12:37;;;;;;;3.20;0.90;;;13.80;99.90;;;;;;5010898;28;20025;-84
2021/07/07 02:15:10;;;;;;;2.30;0.50;;;13.80;99.90;;;;;;5011095;28;20617;-84
2021/07/07 02:17:37;;;;;;;1.30;0.50;;;13.70;99.90;;;;;;5026988;28;20085;-84
2021/07/07 02:20:07;;;;;;;2.50;0.60;;;13.80;99.90;;;;;;5028471;28;20026;-84
2021/07/07 02:22:33;;;;;;;3.53;0.50;;;13.70;99.90;;;;;;5028623;28;20029;-83
2021/07/07 02:24:58;;;;;;;1.98;1.08;;;13.70;99.90;;;;;;5028169;28;20406;-84
2021/07/07 02:27:24;;;;;;;2.55;0.50;;;13.70;99.90;;;;;;5027096;28;20164;-84
2021/07/07 02:29:49;;;;;;;1.20;0.60;;;13.70;99.90;;;;;;5027001;28;20030;-83
2021/07/07 02:32:15;;;;;;;1.23;0.50;;;13.70;99.90;;;;;;5026379;28;20060;-85
2021/07/07 02:34:41;;;;;;;1.98;0.40;;;13.70;99.90;;;;;;5026758;28;20482;-84
2021/07/07 02:37:06;;;;;;;1.40;0.50;;;13.70;99.90;;;;;;5010180;28;20064;-84
2021/07/07 02:39:32;;;;;;;1.27;0.52;;;13.70;99.90;;;;;;5027175;28;20026;-84
2021/07/07 02:41:58;;;;;;;1.05;0.57;;;13.70;99.90;;;;;;5011158;28;20072;-84
2021/07/07 02:44:23;;;;;;;4.40;0.50;;;13.70;99.90;;;;;;5029116;28;20034;-84
2021/07/07 02:46:49;;;;;;;1.30;0.50;;;13.70;99.90;;;;;;5026233;28;20449;-84
2021/07/07 02:49:14;;;;;;;1.40;0.52;;;13.70;99.90;;;;;;5026394;28;20050;-83
2021/07/07 02:51:40;;;;;;;1.88;0.60;;;13.60;99.90;;;;;;5026908;28;20038;-84
2021/07/07 02:54:05;;;;;;;2.40;1.00;;;13.70;99.90;;;;;;5029026;28;20057;-84
2021/07/07 02:56:31;;;;;;;3.03;0.90;;;13.70;99.90;;;;;;5013356;28;20120;-84
2021/07/07 02:58:57;;;;;;;3.25;1.00;;;13.60;99.90;;;;;;5047563;28;20034;-84
2021/07/07 03:01:23;;;;;;;1.40;0.65;;;13.60;99.90;;;;;;5029930;28;20068;-84
2021/07/07 03:03:48;;;;;;;3.05;0.68;;;13.60;99.90;;;;;;5029441;28;20029;-84
2021/07/07 03:06:14;;;;;;;3.25;1.25;;;13.60;99.90;;;;;;5029549;28;20041;-84
2021/07/07 03:09:17;;;;;;;1.52;0.63;;;13.70;99.90;;;;;;5047180;28;20358;-83
2021/07/07 03:11:42;;;;;;;1.45;0.50;;;13.70;99.90;;;;;;5025599;28;20041;-84
2021/07/07 03:14:08;;;;;;;3.67;0.65;;;13.70;99.90;;;;;;5029672;28;20034;-84
2021/07/07 03:16:33;;;;;;;2.47;0.73;;;13.80;99.90;;;;;;5029197;28;20080;-85
2021/07/07 03:18:59;;;;;;;2.15;0.70;;;13.70;99.90;;;;;;5047052;28;20049;-85
2021/07/07 03:21:25;;;;;;;1.90;0.65;;;13.70;99.90;;;;;;5029569;28;20033;-84
2021/07/07 03:23:50;;;;;;;1.92;0.50;;;13.80;99.90;;;;;;5029255;28;20040;-85
2021/07/07 03:26:16;;;;;;;1.55;0.57;;;13.70;99.90;;;;;;5029217;28;20114;-84
2021/07/07 03:28:42;;;;;;;1.90;0.65;;;13.70;99.90;;;;;;5046968;28;20030;-84
2021/07/07 03:31:07;;;;;;;2.75;0.65;;;13.70;99.90;;;;;;5029271;28;20044;-85
2021/07/07 03:33:33;;;;;;;2.08;0.50;;;13.70;99.90;;;;;;5029332;28;20053;-85
2021/07/07 03:35:59;;;;;;;2.28;0.70;;;13.70;99.90;;;;;;5028929;28;20096;-83
2021/07/07 03:38:26;;;;;;;2.22;0.70;;;13.70;99.90;;;;;;5046783;28;20037;-85
2021/07/07 03:40:52;;;;;;;1.95;0.98;;;13.60;99.90;;;;;;5028922;28;20143;-84
2021/07/07 03:43:17;;;;;;;3.05;0.70;;;13.70;99.90;;;;;;5028049;28;20029;-84
2021/07/07 03:45:43;;;;;;;2.90;1.00;;;13.70;99.90;;;;;;5045295;28;20068;-85
2021/07/07 03:48:09;;;;;;;1.27;0.70;;;13.80;99.90;;;;;;5045490;28;20049;-83
2021/07/07 03:50:35;;;;;;;1.90;0.90;;;13.80;99.90;;;;;;5045951;28;20029;-83
2021/07/07 03:53:03;;;;;;;2.30;0.88;;;13.90;99.90;;;;;;5028154;28;20033;-84
2021/07/07 03:55:29;;;;;;;5.47;0.90;;;13.90;99.90;;;;;;5008145;28;20105;-84
2021/07/07 03:57:54;;;;;;;1.88;0.98;;;14.00;99.90;;;;;;5008374;28;20048;-84
2021/07/07 04:00:23;;;;;;;2.10;1.10;;;14.10;99.90;;;;;;5008276;28;20100;-83
2021/07/07 04:02:50;;;;;;;2.67;0.95;;;14.10;99.90;;;;;;5024942;28;20029;-83
2021/07/07 04:05:16;;;;;;;5.63;0.90;;;14.10;99.90;;;;;;5024372;28;20091;-84
2021/07/07 04:07:43;;;;;;;2.15;0.80;;;14.20;99.90;;;;;;5008148;28;20465;-83
2021/07/07 04:10:10;;;;;;;1.75;0.88;;;14.20;99.90;;;;;;5024495;28;20148;-83
2021/07/07 04:12:36;;;;;;;4.72;0.90;;;14.30;99.90;;;;;;5025760;28;20041;-83
2021/07/07 04:15:06;;;;;;;4.38;0.82;;;14.30;99.90;;;;;;5024354;28;20029;-84
2021/07/07 04:17:33;;;;;;;2.42;0.70;;;14.30;99.90;;;;;;5008067;28;20386;-82
2021/07/07 04:19:58;;;;;;;2.90;0.80;;;14.20;99.90;;;;;;5025540;28;20033;-84
2021/07/07 04:22:24;;;;;;;1.67;0.63;;;14.10;99.90;;;;;;5024409;28;20037;-81
2021/07/07 04:24:50;;;;;;;2.70;0.57;;;14.10;99.90;;;;;;5024181;28;20030;-83
2021/07/07 04:27:16;;;;;;;2.35;0.60;;;14.10;99.90;;;;;;5025474;28;20063;-84
2021/07/07 04:29:41;;;;;;;2.38;0.50;;;14.10;99.90;;;;;;5024293;28;20041;-83
2021/07/07 04:32:08;;;;;;;4.18;0.50;;;14.10;99.90;;;;;;5007953;28;20081;-83
2021/07/07 04:34:34;;;;;;;1.40;0.50;;;14.20;99.90;;;;;;5007733;28;20097;-82
2021/07/07 04:37:01;;;;;;;5.78;0.70;;;14.20;99.90;;;;;;5023830;28;20033;-83
2021/07/07 04:39:26;;;;;;;5.57;0.60;;;14.20;99.90;;;;;;5024014;28;20102;-84
2021/07/07 04:41:52;;;;;;;6.07;0.65;;;14.30;99.90;;;;;;5025180;28;20053;-84
2021/07/07 04:44:18;;;;;;;2.50;0.50;;;14.30;99.90;;;;;;5007701;28;20098;-84
2021/07/07 04:46:43;;;;;;;1.45;0.50;;;14.30;99.90;;;;;;5024825;28;20049;-83
2021/07/07 04:49:09;;;;;;;6.22;0.50;;;14.30;99.90;;;;;;5019036;23;20049;-83
2021/07/07 04:51:35;;;;;;;3.30;0.50;;;14.20;99.90;;;;;;5027691;28;20342;-82
2021/07/07 04:54:01;;;;;;;2.38;0.50;;;14.40;99.90;;;;;;5040942;28;20063;-83
2021/07/07 04:56:26;;;;;;;3.55;0.60;;;14.50;99.90;;;;;;5047669;28;20061;-83
2021/07/07 04:58:52;;;;;;;2.55;0.63;;;14.60;99.90;;;;;;5031313;28;20030;-83
2021/07/07 05:03:55;;;;;;;2.45;0.50;;;15.10;99.90;;;;;;5067016;28;20052;-83
2021/07/07 05:06:21;;;;;;;4.43;0.70;;;15.20;99.90;;;;;;5050641;28;20040;-80
2021/07/07 05:08:47;;;;;;;4.32;0.70;;;15.20;99.90;;;;;;5050105;28;20060;-82
2021/07/07 05:11:16;;;;;;;4.53;0.65;;;15.20;99.90;;;;;;5050867;28;20033;-82
2021/07/07 05:13:41;;;;;;;2.63;0.65;;;15.30;99.90;;;;;;5050874;28;20060;-83
2021/07/07 05:16:07;;;;;;;2.13;0.70;;;15.30;99.90;;;;;;5068561;28;20037;-83
2021/07/07 05:18:33;;;;;;;2.40;0.60;;;15.30;99.90;;;;;;5050533;28;20029;-83
2021/07/07 05:20:58;;;;;;;4.05;0.80;;;15.30;99.90;;;;;;5068490;28;20036;-84
2021/07/07 05:23:24;;;;;;;6.15;0.80;;;15.30;99.90;;;;;;5049885;28;20116;-84
2021/07/07 05:25:50;;;;;;;3.28;0.75;;;15.40;99.90;;;;;;5068448;28;20041;-82
2021/07/07 05:28:15;;;;;;;3.70;1.00;;;15.40;99.90;;;;;;5067090;28;20039;-84
2021/07/07 05:30:43;;;;;;;3.05;0.70;;;15.50;99.90;;;;;;5049428;28;20025;-84
2021/07/07 05:33:09;;;;;;;4.32;0.90;;;15.50;99.90;;;;;;5050485;28;20438;-83
2021/07/07 05:35:38;;;;;;;3.63;0.57;;;15.50;99.90;;;;;;5050214;28;20033;-82
2021/07/07 05:38:06;;;;;;;5.07;1.00;;;15.50;99.90;;;;;;5050155;28;20048;-82
2021/07/07 05:40:32;;;;;;;1.80;0.50;;;15.40;99.90;;;;;;5034116;28;20063;-82
2021/07/07 05:42:57;;;;;;;2.88;0.50;;;15.50;99.90;;;;;;5033744;28;20041;-83
2021/07/07 05:45:27;;;;;;;2.83;0.55;;;15.50;99.90;;;;;;5033861;28;20105;-84
2021/07/07 05:47:54;;;;;;;2.85;0.70;;;15.60;99.90;;;;;;5050068;28;20036;-83
2021/07/07 05:50:20;;;;;;;2.30;0.70;;;15.60;99.90;;;;;;5050294;28;20025;-83
2021/07/07 05:52:46;;;;;;;2.78;0.80;;;15.70;99.90;;;;;;5049995;28;20082;-83
2021/07/07 05:55:12;;;;;;;3.40;0.63;;;15.70;99.90;;;;;;5033337;28;20464;-82
2021/07/07 05:57:38;;;;;;;2.88;0.57;;;15.80;99.90;;;;;;5067801;28;20092;-84
2021/07/07 06:00:14;;;;;;;1.73;0.70;;;15.90;99.90;;;;;;5050138;28;20021;-83
2021/07/07 06:02:41;;;;;;;3.08;0.73;;;15.90;99.90;;;;;;5067488;28;20049;-83
2021/07/07 06:05:08;;;;;;;3.13;1.05;;;15.90;99.90;;;;;;5049718;28;20033;-84
2021/07/07 06:07:34;;;;;;;4.13;0.80;;;16.00;99.90;;;;;;5048532;28;20047;-83
2021/07/07 06:10:00;;;;;;;3.25;0.50;;;16.00;99.90;;;;;;5049738;28;20096;-83
2021/07/07 06:12:25;;;;;;;4.82;0.63;;;16.10;99.90;;;;;;5067617;28;20033;-83
2021/07/07 06:14:51;;;;;;;2.15;0.55;;;16.10;99.90;;;;;;5067524;28;20030;-83
2021/07/07 06:17:17;;;;;;;3.17;0.73;;;16.10;99.90;;;;;;5049289;28;20043;-82
2021/07/07 06:19:42;;;;;;;4.32;0.50;;;16.20;99.90;;;;;;5049681;28;20032;-84
2021/07/07 06:22:08;;;;;;;3.53;0.45;;;16.30;99.90;;;;;;5067246;28;20063;-83
2021/07/07 06:24:34;;;;;;;2.83;0.50;;;16.30;99.90;;;;;;5049551;28;20029;-84
2021/07/07 06:26:59;;;;;;;4.80;0.65;;;16.40;99.90;;;;;;5032646;28;20049;-83
2021/07/07 06:29:25;;;;;;;3.33;0.50;;;16.40;99.90;;;;;;5049441;28;20040;-83
2021/07/07 06:31:50;;;;;;;2.50;0.60;;;16.50;99.90;;;;;;5067333;28;20055;-82
2021/07/07 06:34:16;;;;;;;5.53;0.55;;;16.50;99.90;;;;;;5049216;28;20033;-83
2021/07/07 06:36:42;;;;;;;1.98;0.52;;;16.60;99.90;;;;;;5048869;28;20029;-83
2021/07/07 06:39:07;;;;;;;2.90;0.45;;;16.60;99.90;;;;;;5049112;28;20481;-83
2021/07/07 06:41:33;;;;;;;5.43;1.67;;;16.70;99.90;;;;;;5049193;28;20095;-83
2021/07/07 06:43:59;;;;;;;7.20;1.10;;;16.70;99.90;;;;;;5049234;28;20036;-82
2021/07/07 06:46:45;;;;;;;2.45;0.52;;;16.80;99.90;;;;;;5066690;28;20048;-84
2021/07/07 06:49:11;;;;;;;4.28;0.70;;;16.90;99.90;;;;;;5008260;28;20464;-84
2021/07/07 06:51:36;;;;;;;4.25;0.60;;;17.00;99.90;;;;;;5008313;28;20053;-83
2021/07/07 06:54:02;;;;;;;6.95;0.70;;;17.00;99.90;;;;;;5008010;28;20042;-81
2021/07/07 06:56:28;;;;;;;3.35;0.47;;;16.90;99.90;;;;;;5008140;28;20042;-82
2021/07/07 06:58:53;;;;;;;3.42;0.50;;;17.10;99.90;;;;;;5008033;28;20045;-83
2021/07/07 07:01:19;;;;;;;6.13;0.70;;;17.20;99.90;;;;;;5008129;28;20099;-83
2021/07/07 07:03:44;;;;;;;3.95;0.65;;;17.30;99.90;;;;;;5024221;28;20119;-83
2021/07/07 07:06:10;;;;;;;1.67;0.50;;;17.40;99.90;;;;;;5024278;28;20054;-81
2021/07/07 07:08:36;;;;;;;4.18;0.50;;;17.60;99.90;;;;;;5024380;28;20034;-83
2021/07/07 07:11:01;;;;;;;2.63;0.60;;;17.70;99.90;;;;;;5008556;28;20041;-83
2021/07/07 07:13:27;;;;;;;2.90;0.50;;;17.80;99.90;;;;;;5008347;28;20080;-83
2021/07/07 07:15:53;;;;;;;3.15;0.50;;;17.90;99.90;;;;;;5010962;28;20060;-82
2021/07/07 07:18:18;;;;;;;1.50;0.50;;;17.90;99.90;;;;;;5007620;28;20034;-85
2021/07/07 07:20:44;;;;;;;3.22;0.60;;;17.90;99.90;;;;;;5008005;28;20044;-83
2021/07/07 07:23:10;;;;;;;3.67;0.70;;;17.90;99.90;;;;;;5007747;28;20193;-83
2021/07/07 07:25:36;;;;;;;3.05;0.50;;;18.40;99.90;;;;;;5033825;28;20055;-85
2021/07/07 07:28:02;;;;;;;2.58;0.50;;;18.90;99.90;;;;;;5048217;28;20049;-83
2021/07/07 07:30:29;;;;;;;2.47;0.50;;;19.20;99.90;;;;;;5048564;28;20099;-83
2021/07/07 07:32:55;;;;;;;5.53;0.50;;;19.20;99.90;;;;;;5048221;28;20035;-82
2021/07/07 07:35:22;;;;;;;2.88;0.70;;;19.60;99.90;;;;;;5048234;28;20032;-83
2021/07/07 07:37:51;;;;;;;4.47;0.60;;;20.00;99.90;;;;;;5031473;28;20037;-83
2021/07/07 07:40:27;;;;;;;4.55;0.60;;;20.30;99.90;;;;;;5031785;28;20101;-83
2021/07/07 07:42:53;;;;;;;1.50;0.40;;;20.40;99.90;;;;;;5031687;28;20033;-83
2021/07/07 07:45:19;;;;;;;3.83;0.70;;;20.40;99.90;;;;;;5047872;28;20126;-83
2021/07/07 07:47:45;;;;;;;3.67;0.70;;;20.50;99.90;;;;;;5024517;28;20029;-83
2021/07/07 07:50:13;;;;;;;3.92;0.60;;;20.40;99.90;;;;;;5044482;28;20022;-82
2021/07/07 07:52:41;;;;;;;6.07;0.93;;;20.30;99.90;;;;;;5027971;28;20049;-83
2021/07/07 07:55:08;;;;;;;6.65;0.68;;;20.60;99.90;;;;;;5056184;28;20021;-83
2021/07/07 07:57:37;;;;;;;2.63;0.70;;;20.70;99.90;;;;;;5047567;28;20058;-82
2021/07/07 08:00:11;;;;;;;3.13;0.50;;;21.10;99.90;;;;;;5047548;28;20029;-82
2021/07/07 08:02:44;;;;;;;4.43;0.50;;;21.00;99.90;;;;;;5047131;28;20041;-83
2021/07/07 08:05:10;;;;;;;3.22;0.45;;;21.00;99.90;;;;;;5046914;28;20049;-83
2021/07/07 08:07:38;;;;;;;5.15;0.57;;;21.50;99.90;;;;;;5065435;28;20071;-82
2021/07/07 08:10:05;;;;;;;4.38;0.40;;;21.50;99.90;;;;;;5047559;28;20063;-83
2021/07/07 08:12:30;;;;;;;5.43;0.60;;;21.60;99.90;;;;;;5047625;28;20029;-83
2021/07/07 08:14:56;;;;;;;5.55;0.77;;;21.40;99.90;;;;;;5047153;28;20595;-82
2021/07/07 08:17:22;;;;;;;3.35;0.50;;;21.50;99.90;;;;;;5046905;28;20033;-81
2021/07/07 08:19:48;;;;;;;3.05;0.50;;;21.90;99.90;;;;;;5047573;28;20108;-82
2021/07/07 08:22:16;;;;;;;2.88;0.40;;;22.10;99.90;;;;;;5047470;28;20052;-82
2021/07/07 08:24:41;;;;;;;2.03;0.40;;;22.50;99.90;;;;;;5046939;28;20041;-82
2021/07/07 08:27:08;;;;;;;2.95;0.40;;;22.60;99.90;;;;;;5030813;28;20041;-82
2021/07/07 08:29:35;;;;;;;4.82;0.50;;;22.80;99.90;;;;;;5047203;28;20073;-81
2021/07/07 08:32:02;;;;;;;3.17;0.40;;;22.40;99.90;;;;;;5064915;28;20441;-82
2021/07/07 08:34:28;;;;;;;3.17;0.50;;;22.50;99.90;;;;;;5046954;28;20033;-82
2021/07/07 08:36:53;;;;;;;2.65;0.40;;;22.40;99.90;;;;;;5047203;28;20043;-82
2021/07/07 08:39:19;;;;;;;3.65;0.40;;;22.80;99.90;;;;;;5047018;28;20068;-82
2021/07/07 08:41:44;;;;;;;1.63;0.40;;;22.90;99.90;;;;;;5030787;28;20033;-82
2021/07/07 08:44:10;;;;;;;3.95;0.47;;;23.10;99.90;;;;;;5046999;28;20033;-82
2021/07/07 08:46:56;;;;;;;2.72;0.47;;;23.10;99.90;;;;;;5046311;28;20043;-80
2021/07/07 08:49:22;;;;;;;2.50;0.47;;;23.00;99.90;;;;;;5022671;28;20128;-82
2021/07/07 08:51:48;;;;;;;2.95;0.45;;;23.30;99.90;;;;;;5006316;28;20045;-82
2021/07/07 08:54:14;;;;;;;3.88;0.55;;;23.10;99.90;;;;;;5005970;28;20068;-82
2021/07/07 08:56:43;;;;;;;2.33;0.57;;;23.10;99.90;;;;;;5022319;28;20037;-82
2021/07/07 08:59:10;;;;;;;3.00;0.50;;;23.50;99.90;;;;;;5022709;28;20037;-82
2021/07/07 09:02:08;;;;;;;3.03;0.50;;;23.70;99.90;;;;;;5006058;28;20052;-81
2021/07/07 09:04:35;;;;;;;3.22;0.40;;;23.60;99.90;;;;;;5005922;28;20038;-82
2021/07/07 09:07:06;;;;;;;2.00;0.57;;;23.60;99.90;;;;;;5005725;28;20553;-82
2021/07/07 09:09:42;;;;;;;3.15;0.43;;;23.80;99.90;;;;;;5006060;28;20076;-81
2021/07/07 09:12:24;;;;;;;1.63;0.40;;;23.80;99.90;;;;;;5006009;28;20062;-82
2021/07/07 09:14:58;;;;;;;2.75;0.70;;;23.80;99.90;;;;;;5005951;28;20049;-81
2021/07/07 09:17:24;;;;;;;5.05;0.50;;;23.90;99.90;;;;;;5005962;28;20134;-81
2021/07/07 09:19:50;;;;;;;3.28;0.50;;;24.20;99.90;;;;;;4989660;28;20045;-82
2021/07/07 09:22:16;;;;;;;3.53;0.40;;;23.90;99.90;;;;;;5022437;28;20029;-82
2021/07/07 09:24:46;;;;;;;5.07;0.43;;;23.50;99.90;;;;;;5005852;28;20037;-82
2021/07/07 09:27:17;;;;;;;3.17;0.38;;;23.70;99.90;;;;;;5038398;28;20116;-82
2021/07/07 09:29:53;;;;;;;1.98;0.50;;;23.60;99.90;;;;;;5029884;28;20036;-81
2021/07/07 09:32:28;;;;;;;2.63;0.40;;;23.50;99.90;;;;;;5064626;28;20039;-81
2021/07/07 09:35:02;;;;;;;1.70;0.32;;;24.20;99.90;;;;;;5064258;28;20029;-82
2021/07/07 09:37:43;;;;;;;1.58;0.50;;;23.80;99.90;;;;;;5046412;28;20029;-82
2021/07/07 09:40:11;;;;;;;1.85;0.30;;;23.40;99.90;;;;;;5046352;28;20078;-81
2021/07/07 09:42:38;;;;;;;2.58;0.40;;;23.50;99.90;;;;;;5066927;28;20089;-81
2021/07/07 09:45:07;;;;;;;2.00;0.30;;;23.10;99.90;;;;;;5050168;28;20041;-81
2021/07/07 09:47:32;;;;;;;1.67;0.22;;;22.80;99.90;;;;;;5043306;28;20045;-81
2021/07/07 09:49:59;;;;;;;1.55;0.30;;;22.60;99.90;;;;;;5050215;28;20071;-81
2021/07/07 09:52:30;;;;;;;3.20;0.40;;;23.00;99.90;;;;;;5050009;28;20070;-81
2021/07/07 09:54:57;;;;;;;2.05;0.30;;;22.50;99.90;;;;;;5049896;28;20488;-80
2021/07/07 09:57:23;;;;;;;3.08;0.52;;;22.10;99.90;;;;;;5049948;28;20029;-81
2021/07/07 09:59:49;;;;;;;1.50;0.30;;;22.40;99.90;;;;;;5049899;28;20043;-81
2021/07/07 10:02:16;;;;;;;1.90;0.30;;;22.50;99.90;;;;;;5049958;28;20088;-81
2021/07/07 10:04:43;;;;;;;6.10;0.40;;;23.30;99.90;;;;;;5049777;28;20033;-81
2021/07/07 10:07:10;;;;;;;1.98;0.30;;;22.70;99.90;;;;;;5049727;28;20051;-80
2021/07/07 10:09:38;;;;;;;1.98;0.30;;;22.30;99.90;;;;;;5049908;28;20092;-81
2021/07/07 10:12:05;;;;;;;2.00;0.30;;;22.00;99.90;;;;;;5049609;28;20061;-81
2021/07/07 10:14:31;;;;;;;4.03;0.40;;;21.80;99.90;;;;;;5067569;28;20031;-81
2021/07/07 10:16:56;;;;;;;1.77;0.38;;;21.70;99.90;;;;;;5049291;28;20041;-81
2021/07/07 10:19:22;;;;;;;2.25;0.40;;;22.00;99.90;;;;;;5049722;28;20120;-81
2021/07/07 10:21:49;;;;;;;1.75;0.30;;;22.50;99.90;;;;;;5067649;28;20115;-80
2021/07/07 10:24:18;;;;;;;2.05;0.32;;;23.10;99.90;;;;;;5049510;28;20052;-81
2021/07/07 10:26:45;;;;;;;2.58;0.30;;;23.10;99.90;;;;;;5049213;28;20068;-81
2021/07/07 10:29:13;;;;;;;2.17;0.40;;;22.90;99.90;;;;;;5049487;28;20037;-81
2021/07/07 10:31:49;;;;;;;2.03;0.30;;;23.30;99.90;;;;;;5032962;28;20087;-81
2021/07/07 10:34:16;;;;;;;2.25;0.38;;;23.70;99.90;;;;;;5049451;28;20059;-81
2021/07/07 10:36:42;;;;;;;2.63;0.38;;;23.70;99.90;;;;;;5049198;28;20116;-81
2021/07/07 10:39:10;;;;;;;1.30;0.20;;;23.60;99.90;;;;;;5049230;28;20033;-81
2021/07/07 10:41:42;;;;;;;2.90;0.43;;;23.00;99.90;;;;;;5049373;28;20039;-80
2021/07/07 10:44:09;;;;;;;1.98;0.30;;;22.70;99.90;;;;;;5049256;28;20044;-81
2021/07/07 10:50:34;;;;;;;1.60;0.20;;;23.40;99.90;;;;;;5024640;28;20070;-80
2021/07/07 10:53:00;;;;;;;2.90;0.30;;;23.70;99.90;;;;;;5007618;28;20038;-81
2021/07/07 10:55:41;;;;;;;2.78;0.40;;;23.30;99.90;;;;;;5024310;28;20033;-80
2021/07/07 10:58:29;;;;;;;4.75;0.30;;;23.50;99.90;;;;;;5007915;28;20034;-80
2021/07/07 11:00:55;;;;;;;1.55;0.30;;;23.30;99.90;;;;;;5008158;28;20225;-81
2021/07/07 11:03:35;;;;;;;2.20;0.25;;;23.10;99.90;;;;;;5007726;28;20110;-81
2021/07/07 11:06:22;;;;;;;3.90;0.30;;;22.90;99.90;;;;;;5007813;28;20042;-81
2021/07/07 11:08:49;;;;;;;3.00;0.30;;;22.80;99.90;;;;;;5008003;28;20173;-80
2021/07/07 11:11:23;;;;;;;3.05;0.30;;;23.20;99.90;;;;;;5008030;28;20037;-80
2021/07/07 11:13:50;;;;;;;1.65;0.30;;;24.00;99.90;;;;;;5007762;28;20117;-80
2021/07/07 11:16:20;;;;;;;1.95;0.50;;;24.90;99.90;;;;;;5007637;28;20097;-80
2021/07/07 11:18:47;;;;;;;2.25;0.30;;;25.30;99.90;;;;;;5023972;28;20030;-80
2021/07/07 11:21:13;;;;;;;1.63;0.30;;;24.90;99.90;;;;;;5024176;28;20121;-80
2021/07/07 11:23:39;;;;;;;2.75;0.30;;;24.20;99.90;;;;;;5007516;28;20018;-81
2021/07/07 11:26:09;;;;;;;2.88;0.30;;;23.50;99.90;;;;;;5038686;28;20053;-81
2021/07/07 11:28:35;;;;;;;2.75;0.40;;;23.70;99.90;;;;;;5048179;28;20044;-81
2021/07/07 11:31:01;;;;;;;2.92;0.30;;;23.40;99.90;;;;;;5048129;28;20029;-81
2021/07/07 11:33:27;;;;;;;1.15;0.20;;;23.00;99.90;;;;;;5048004;28;20029;-81
2021/07/07 11:35:53;;;;;;;2.90;0.30;;;23.40;99.90;;;;;;5047855;28;20059;-80
2021/07/07 11:38:37;;;;;;;1.67;0.30;;;23.80;99.90;;;;;;5065819;28;20089;-81
2021/07/07 11:41:04;;;;;;;2.15;0.20;;;24.20;99.90;;;;;;5048058;28;20041;-79
2021/07/07 11:43:33;;;;;;;3.45;0.30;;;24.50;99.90;;;;;;5065662;28;20037;-81
2021/07/07 11:46:03;;;;;;;2.05;0.30;;;23.80;99.90;;;;;;5047668;28;20041;-81
2021/07/07 11:48:40;;;;;;;3.25;0.30;;;23.60;99.90;;;;;;5047705;28;20040;-81
2021/07/07 11:51:16;;;;;;;1.77;0.20;;;23.40;99.90;;;;;;5047831;28;20029;-81
2021/07/07 11:53:43;;;;;;;3.38;0.20;;;23.20;99.90;;;;;;5047879;28;20067;-81
2021/07/07 11:56:12;;;;;;;2.38;0.40;;;23.50;99.90;;;;;;5047324;28;20029;-80
2021/07/07 11:58:55;;;;;;;1.42;0.30;;;23.30;99.90;;;;;;5047386;28;20029;-81
2021/07/07 12:01:32;;;;;;;2.90;0.30;;;23.50;99.90;;;;;;5065593;28;20044;-81
2021/07/07 12:04:06;;;;;;;1.40;0.20;;;23.70;99.90;;;;;;5065388;28;20493;-81
2021/07/07 12:06:33;;;;;;;2.42;0.20;;;23.50;99.90;;;;;;5030302;28;20044;-80
2021/07/07 12:09:01;;;;;;;2.00;0.20;;;23.60;99.90;;;;;;5030741;28;20033;-80
2021/07/07 12:11:27;;;;;;;1.02;0.20;;;23.80;99.90;;;;;;5047480;28;20025;-80
2021/07/07 12:13:55;;;;;;;1.38;0.30;;;24.00;99.90;;;;;;5065079;28;20084;-80
2021/07/07 12:16:33;;;;;;;1.35;0.20;;;24.10;99.90;;;;;;5030655;28;20033;-81
2021/07/07 12:19:11;;;;;;;0.93;0.17;;;23.90;99.90;;;;;;5030549;28;20029;-81
2021/07/07 12:21:45;;;;;;;3.13;0.55;;;24.40;99.90;;;;;;5065280;28;20311;-81
2021/07/07 12:24:17;;;;;;;1.15;0.20;;;23.70;99.90;;;;;;5030533;28;20124;-81
2021/07/07 12:26:46;;;;;;;0.80;0.20;;;24.20;99.90;;;;;;5046897;28;20044;-81
2021/07/07 12:29:16;;;;;;;0.80;0.17;;;24.30;99.90;;;;;;5046735;28;20029;-80
2021/07/07 12:31:44;;;;;;;1.30;0.20;;;24.60;99.90;;;;;;5065158;28;20037;-81
2021/07/07 12:34:11;;;;;;;2.13;0.20;;;24.20;99.90;;;;;;5064673;28;20112;-80
2021/07/07 12:36:39;;;;;;;1.90;0.30;;;23.90;99.90;;;;;;5046994;28;20120;-80
2021/07/07 12:39:16;;;;;;;0.88;0.20;;;23.80;99.90;;;;;;5046933;28;20095;-81
2021/07/07 12:41:47;;;;;;;0.98;0.20;;;23.60;99.90;;;;;;5065078;28;20044;-80
2021/07/07 12:44:13;;;;;;;1.13;0.30;;;24.00;99.90;;;;;;5061892;28;20032;-81
2021/07/07 12:46:57;;;;;;;1.17;0.20;;;24.10;99.90;;;;;;5064462;28;20057;-80
2021/07/07 12:49:52;;;;;;;2.15;0.47;;;24.20;99.90;;;;;;5034820;23;20122;-80
2021/07/07 12:52:33;;;;;;;0.60;0.15;;;24.20;99.90;;;;;;5007828;28;20030;-82
2021/07/07 12:55:05;;;;;;;1.38;0.20;;;24.40;99.90;;;;;;5007260;28;20041;-81
2021/07/07 12:58:12;;;;;;;1.00;0.22;;;24.50;99.90;;;;;;5007678;28;20045;-80